createdAt,value
2022-08-16T00:03:44.126Z,16.20
2022-08-16T00:08:46.537Z,16.05
2022-08-16T00:13:54.222Z,16.00
2022-08-16T00:18:56.925Z,16.38
2022-08-16T00:24:00.747Z,16.20
2022-08-16T00:29:06.751Z,16.83
2022-08-16T00:34:08.704Z,18.92
2022-08-16T00:39:20.489Z,19.10
2022-08-16T00:44:23.257Z,18.42
2022-08-16T00:49:39.126Z,19.02
2022-08-16T00:54:42.106Z,17.55
2022-08-16T00:59:54.624Z,18.25
2022-08-16T01:05:09.334Z,20.45
2022-08-16T01:10:16.169Z,23.45
2022-08-16T01:15:18.945Z,20.63
2022-08-16T01:20:30.275Z,19.25
2022-08-16T01:25:37.656Z,23.27
2022-08-16T01:30:49.702Z,20.02
2022-08-16T01:35:57.546Z,21.10
2022-08-16T01:41:13.243Z,17.30
2022-08-16T01:46:39.731Z,17.65
2022-08-16T01:52:02.546Z,17.70
2022-08-16T01:57:25.319Z,17.50
2022-08-16T02:02:29.995Z,17.23
2022-08-16T02:07:35.940Z,19.20
2022-08-16T02:12:50.340Z,17.27
2022-08-16T02:17:57.091Z,16.38
2022-08-16T02:23:01.573Z,17.58
2022-08-16T02:28:04.210Z,15.13
2022-08-16T02:33:07.619Z,15.93
2022-08-16T02:38:10.435Z,14.68
2022-08-16T02:43:13.676Z,17.02
2022-08-16T02:48:29.459Z,15.20
2022-08-16T02:53:35.364Z,14.80
2022-08-16T02:58:38.984Z,15.98
2022-08-16T03:04:40.087Z,14.82
2022-08-16T03:09:05.461Z,14.30
2022-08-16T03:14:12.418Z,14.68
2022-08-16T03:19:15.549Z,14.38
2022-08-16T03:24:29.127Z,14.75
2022-08-16T03:29:33.813Z,14.80
2022-08-16T03:34:38.188Z,12.15
2022-08-16T03:39:42.795Z,14.52
2022-08-16T03:44:49.490Z,13.30
2022-08-16T03:49:53.867Z,13.57
2022-08-16T03:54:58.107Z,12.80
2022-08-16T04:00:01.856Z,12.90
2022-08-16T04:05:16.901Z,13.15
2022-08-16T04:10:36.956Z,12.88
2022-08-16T04:15:40.956Z,13.25
2022-08-16T04:20:56.401Z,13.18
2022-08-16T04:26:03.946Z,13.77
2022-08-16T04:31:10.576Z,14.77
2022-08-16T04:36:20.196Z,13.25
2022-08-16T04:41:32.794Z,13.25
2022-08-16T04:47:01.473Z,14.93
2022-08-16T04:52:05.637Z,12.60
2022-08-16T04:57:30.099Z,13.43
2022-08-16T05:02:41.439Z,12.07
2022-08-16T05:07:58.390Z,13.52
2022-08-16T05:13:04.248Z,12.98
2022-08-16T05:18:16.153Z,13.10
2022-08-16T05:23:31.737Z,12.60
2022-08-16T05:28:39.020Z,11.73
2022-08-16T05:33:43.104Z,12.18
2022-08-16T05:38:46.241Z,11.40
2022-08-16T05:43:49.847Z,12.68
2022-08-16T05:49:05.691Z,11.25
2022-08-16T05:54:13.925Z,9.63
2022-08-16T05:59:18.157Z,9.55
2022-08-16T06:04:34.514Z,9.93
2022-08-16T06:09:44.085Z,9.23
2022-08-16T06:14:51.228Z,8.90
2022-08-16T06:19:55.124Z,8.15
2022-08-16T06:25:00.746Z,6.55
2022-08-16T06:30:03.202Z,7.78
2022-08-16T06:35:07.343Z,6.40
2022-08-16T06:40:12.885Z,7.30
2022-08-16T06:45:24.096Z,7.70
2022-08-16T06:50:41.859Z,6.97
2022-08-16T06:55:45.175Z,7.28
2022-08-16T07:00:49.596Z,7.40
2022-08-16T07:05:53.932Z,7.55
2022-08-16T07:11:02.385Z,7.32
2022-08-16T07:16:15.397Z,6.68
2022-08-16T07:21:19.916Z,7.93
2022-08-16T07:26:25.758Z,6.95
2022-08-16T07:31:38.151Z,6.88
2022-08-16T07:36:45.728Z,6.65
2022-08-16T07:42:01.365Z,6.97
2022-08-16T07:47:04.257Z,6.18
2022-08-16T07:52:19.047Z,5.53
2022-08-16T07:57:24.200Z,6.13
2022-08-16T08:02:29.220Z,5.75
2022-08-16T08:07:33.009Z,5.65
2022-08-16T08:12:39.040Z,5.50
2022-08-16T08:17:44.090Z,5.53
2022-08-16T08:22:53.990Z,5.50
2022-08-16T08:28:04.286Z,4.95
2022-08-16T08:33:13.231Z,4.53
2022-08-16T08:38:43.715Z,4.80
2022-08-16T08:43:43.104Z,4.72
2022-08-16T08:48:59.827Z,4.80
2022-08-16T08:54:06.933Z,5.18
2022-08-16T08:59:20.512Z,4.63
2022-08-16T09:04:26.766Z,4.45
2022-08-16T09:09:33.699Z,5.20
2022-08-16T09:14:47.120Z,4.97
2022-08-16T09:19:57.184Z,4.90
2022-08-16T09:25:00.732Z,4.90
2022-08-16T09:30:33.670Z,4.50
2022-08-16T09:35:38.680Z,4.60
2022-08-16T09:40:47.132Z,4.95
2022-08-16T09:45:49.460Z,4.40
2022-08-16T09:50:56.507Z,4.65
2022-08-16T09:55:59.531Z,5.30
2022-08-16T10:01:01.328Z,4.10
2022-08-16T10:06:03.393Z,4.82
2022-08-16T10:11:24.678Z,4.78
2022-08-16T10:16:27.190Z,4.28
2022-08-16T10:21:32.146Z,4.00
2022-08-16T10:27:19.425Z,4.10
2022-08-16T10:31:56.880Z,3.85
2022-08-16T10:37:00.552Z,4.38
2022-08-16T10:42:02.488Z,4.00
2022-08-16T10:47:05.291Z,3.88
2022-08-16T10:52:18.600Z,4.15
2022-08-16T10:57:24.589Z,4.07
2022-08-16T11:02:58.362Z,3.72
2022-08-16T11:07:53.296Z,3.75
2022-08-16T11:12:56.453Z,4.18
2022-08-16T11:23:21.540Z,4.15
2022-08-16T11:33:53.530Z,3.45
2022-08-16T11:39:00.207Z,3.15
2022-08-16T11:44:03.296Z,2.90
2022-08-16T11:49:11.192Z,3.10
2022-08-16T11:54:21.695Z,2.97
2022-08-16T11:59:28.886Z,3.08
2022-08-16T12:04:31.560Z,3.38
2022-08-16T12:09:33.997Z,3.38
2022-08-16T12:14:41.934Z,3.42
2022-08-16T12:19:47.595Z,3.42
2022-08-16T12:24:52.087Z,3.67
2022-08-16T12:29:58.559Z,3.70
2022-08-16T12:35:01.849Z,3.60
2022-08-16T12:40:07.718Z,3.40
2022-08-16T12:45:31.649Z,3.53
2022-08-16T12:50:34.041Z,4.07
2022-08-16T12:55:41.797Z,3.78
2022-08-16T13:00:46.452Z,3.30
2022-08-16T13:05:55.523Z,3.42
2022-08-16T13:10:58.686Z,4.00
2022-08-16T13:16:10.816Z,2.90
2022-08-16T13:21:23.766Z,3.05
2022-08-16T13:26:27.563Z,3.00
2022-08-16T13:31:29.431Z,2.92
2022-08-16T13:36:48.588Z,2.90
2022-08-16T13:41:54.476Z,2.45
2022-08-16T13:46:57.434Z,2.28
2022-08-16T13:51:59.420Z,2.85
2022-08-16T13:57:01.963Z,2.53
2022-08-16T14:02:07.977Z,3.00
2022-08-16T14:07:13.480Z,2.55
2022-08-16T14:12:30.509Z,2.42
2022-08-16T14:18:15.198Z,2.30
2022-08-16T14:22:55.352Z,2.13
2022-08-16T14:27:57.400Z,2.28
2022-08-16T14:33:00.083Z,2.30
2022-08-16T14:38:02.158Z,2.10
2022-08-16T14:43:07.416Z,2.50
2022-08-16T14:48:09.764Z,2.60
2022-08-16T14:53:12.700Z,2.40
2022-08-16T14:58:19.479Z,2.63
2022-08-16T15:03:23.283Z,2.75
2022-08-16T15:08:36.285Z,2.67
2022-08-16T15:13:41.168Z,2.50
2022-08-16T15:18:42.999Z,2.40
2022-08-16T15:23:48.549Z,2.50
2022-08-16T15:28:51.628Z,2.67
2022-08-16T15:33:56.461Z,2.25
2022-08-16T15:39:07.058Z,2.47
2022-08-16T15:44:24.822Z,2.45
2022-08-16T15:49:37.434Z,2.30
2022-08-16T15:54:53.432Z,2.50
2022-08-16T16:00:04.309Z,2.03
2022-08-16T16:05:18.889Z,2.47
2022-08-16T16:10:21.552Z,2.15
2022-08-16T16:15:29.533Z,2.70
2022-08-16T16:20:32.410Z,2.30
2022-08-16T16:25:36.218Z,2.20
2022-08-16T16:30:45.241Z,2.40
2022-08-16T16:35:56.634Z,2.72
2022-08-16T16:41:02.665Z,2.65
2022-08-16T16:46:39.249Z,2.65
2022-08-16T16:51:28.978Z,2.50
2022-08-16T16:56:36.922Z,2.42
2022-08-16T17:01:59.761Z,2.40
2022-08-16T17:07:10.758Z,2.85
2022-08-16T17:12:23.507Z,2.95
2022-08-16T17:17:38.954Z,2.58
2022-08-16T17:22:57.324Z,2.50
2022-08-16T17:28:01.105Z,2.75
2022-08-16T17:33:22.903Z,3.13
2022-08-16T17:38:38.737Z,2.70
2022-08-16T17:43:45.516Z,2.60
2022-08-16T17:48:47.446Z,2.90
2022-08-16T17:53:50.697Z,2.80
2022-08-16T17:58:52.427Z,3.00
2022-08-16T18:04:07.247Z,2.80
2022-08-16T18:09:11.096Z,3.08
2022-08-16T18:14:18.891Z,2.67
2022-08-16T18:19:40.495Z,3.22
2022-08-16T18:24:42.263Z,3.28
2022-08-16T18:29:44.170Z,3.75
2022-08-16T18:34:46.093Z,3.67
2022-08-16T18:39:47.825Z,3.55
2022-08-16T18:44:49.510Z,3.45
2022-08-16T18:49:51.203Z,3.75
2022-08-16T18:55:01.969Z,4.18
2022-08-16T19:00:15.606Z,3.40
2022-08-16T19:05:26.526Z,3.70
2022-08-16T19:10:29.931Z,3.90
2022-08-16T19:15:31.665Z,3.72
2022-08-16T19:20:33.452Z,3.47
2022-08-16T19:25:48.567Z,3.47
2022-08-16T19:30:51.401Z,3.47
2022-08-16T19:35:53.041Z,3.80
2022-08-16T19:40:54.788Z,3.78
2022-08-16T19:45:56.524Z,3.78
2022-08-16T19:50:58.236Z,3.35
2022-08-16T19:55:59.845Z,3.67
2022-08-16T20:01:01.543Z,4.20
2022-08-16T20:06:03.172Z,3.60
2022-08-16T20:11:05.211Z,3.42
2022-08-16T20:16:07.042Z,3.72
2022-08-16T20:21:08.686Z,3.65
2022-08-16T20:26:12.896Z,3.72
2022-08-16T20:31:14.608Z,4.68
2022-08-16T20:36:16.824Z,4.05
2022-08-16T20:41:18.820Z,4.38
2022-08-16T20:46:20.561Z,4.22
2022-08-16T20:51:22.228Z,4.20
2022-08-16T20:56:23.900Z,4.28
2022-08-16T21:01:25.727Z,4.68
2022-08-16T21:06:54.194Z,4.78
2022-08-16T21:11:58.902Z,4.30
2022-08-16T21:17:05.419Z,4.60
2022-08-16T21:22:25.466Z,4.53
2022-08-16T21:27:27.124Z,5.35
2022-08-16T21:32:34.920Z,4.30
2022-08-16T21:37:38.118Z,4.45
2022-08-16T21:42:42.116Z,4.93
2022-08-16T21:47:44.180Z,5.20
2022-08-16T21:52:46.057Z,5.50
2022-08-16T21:57:47.879Z,5.28
2022-08-16T22:02:52.878Z,4.47
2022-08-16T22:07:59.499Z,5.07
2022-08-16T22:13:16.135Z,5.65
2022-08-16T22:18:18.246Z,5.32
2022-08-16T22:23:26.215Z,5.00
2022-08-16T22:28:28.058Z,5.35
2022-08-16T22:33:29.991Z,5.55
2022-08-16T22:38:56.194Z,5.97
2022-08-16T22:43:55.770Z,5.88
2022-08-16T22:48:57.711Z,4.95
2022-08-16T22:53:59.587Z,5.97
2022-08-16T22:59:01.502Z,5.47
2022-08-16T23:04:04.101Z,5.60
2022-08-16T23:09:05.971Z,5.65
2022-08-16T23:14:07.771Z,5.93
2022-08-16T23:19:11.743Z,5.82
2022-08-16T23:24:14.932Z,5.88
2022-08-16T23:29:24.605Z,6.53
2022-08-16T23:34:28.898Z,6.15
2022-08-16T23:39:30.753Z,6.10
2022-08-16T23:44:55.769Z,6.38
2022-08-16T23:50:00.006Z,6.45
2022-08-16T23:55:05.862Z,5.88
